Airfield :
LOGIN :

Register | Disclaimer

   EN    FR    IT 

 










Legend :    VFR   Marginal VFR   IFR   Intensive IFR   Very Intensive IFR
Visi :
Ceiling :
>= 8 km
>= 3000ft
5 to 8 km
1000 to 3000 ft
1500m to 5 km
500 to 1000 ft
800 to 1500m
200 to 500 ft
< 800m
< 200 ft
Symbols :   Thunderstorms  Fog  Heavy snow  Heavy precipitations  Wind > 20 kt
SIGMETs :     Misc.  Thunderstorms  Icing  Turbulence  Mountain Waves  Volcanic Ashes






- Airport Elevation : 27 ft
- IATA code : PMI


LEPA - Palma de Mallorca

CURRENT METAR :
  • 191800Z 06020G34KT 6000 RA FEW010 SCT020 BKN032 10/08 Q1015 NOSIG

EXPIRED METARs :
  • 191730Z 05023G37KT 6000 RA FEW010 SCT020 BKN032 10/08 Q1015 NOSIG
  • 191700Z 06025G37KT 5000 RA FEW010 SCT020 11/09 Q1015 NOSIG
  • 191630Z 06022G35KT 5000 RA FEW010 SCT020 11/09 Q1014 NOSIG
  • 191600Z 05021G32KT 5000 RA FEW010 BKN020 11/09 Q1014 NOSIG
  • 191530Z 05022KT 5000 RA FEW010 SCT020 BKN042 11/10 Q1014 NOSIG

TAF TAF LEPA
Valid from the 19 at 18:00 until the 20 at 18:00 UTC


191700Z 1918/2018 06022G32KT 9999 BKN015 TX15/2013Z TN07/2006Z
TEMPO 1918/2010 3000 SHRA FEW020TCU
PROB40
TEMPO 1918/2010 2000 TSRA BKN010 SCT020CB
TEMPO 1918/2002 05030G42KT
BECMG 2001/2003 05015G30KT



MET'MAP, your aeronautical weather chart ! - Copyright ORBIFLY December 2007 - Disclaimer

ORBIFLY MET'MAP TEAM :

Programming & Development : Alexandra Zaïnal
Concept & original design : Baudouin d'Aumeries
Assistance for programming : Marc-Olivier Méhu
Technical & hardware support : Manuel Goepfert

Contact : metmap@orbifly.com




SOURCES & CREDITS :

   NOAA